Tiempo atmosférico en la estación meteorológica de Torreblanca, Castelló/Castellón (16 m.)



Fecha
DESCASC
Temp. máxima en grados centígrados (hora)
DESCASC
Temp. mínima en grados centígrados (hora)
DESCASC
Temp. media en grados centígrados
DESCASC
Racha de viento máxima en m/sg (hora)
DESCASC
Velocidad máxima media en intervalos de 10 minutos(hora)
DESCASC
Precipitaciones diarias en mm
DESCASC
Precipitaciones de 00:00 a 06:00 en mm
DESCASC
Precipitaciones de 06:00 a 12:00 en mm
DESCASC
Precipitaciones de 12:00 a 18:00 en mm
DESCASC
Precipitaciones de 18:00 a 24:00 en mm
DESCASC
06-07-2020 29.7 (14:50) 21.2 (05:10) 25.5 5.83 (03:00) 3.89 (02:50) 0 0 0 0 0
05-07-2020 28.5 (15:50) 20.1 (05:50) 24.3 7.78 (17:10) 5.56 (18:30) 0 0 0 0 0
04-07-2020 26.6 (14:10) 19.9 (06:20) 23.3 7.22 (13:40) 4.72 (13:40) 0 0 0 0 0
03-07-2020 28.1 (13:00) 22.7 (07:20) 25.4 9.44 (03:30) 5.83 (03:20) 0 0 0 0 0
02-07-2020 29.1 (12:40) 23 (00:00) 26.1 8.89 (14:30) 5.83 (12:20) 0.2 0 0 0.2 0
01-07-2020 29.4 (15:50) 21.2 (00:00) 25.3 6.67 (05:20) 5 (05:20) 0 0 0 0 0
30-06-2020 28.7 (15:10) 21.3 (00:00) 25 7.22 (14:00) 4.17 (06:30) 0 0 0 0 0
29-06-2020 28.4 (13:40) 21.3 (00:00) 24.8 7.22 (14:40) 4.17 (13:30) 0 0 0 0 0
28-06-2020 28.4 (15:40) 21 (00:00) 24.7 6.94 (14:40) 4.17 (07:30) 0 0 0 0 0
27-06-2020 28.5 (15:20) 20.7 (00:00) 24.6 6.39 (14:50) 3.89 (14:00) 0 0 0 0 0
26-06-2020 29.7 (15:00) 20.1 (00:00) 24.9 6.94 (05:40) 5 (05:30) 0 0 0 0 0
25-06-2020 28.5 (18:40) 19.9 (00:00) 24.2 5.83 (07:50) 3.89 (07:20) 0 0 0 0 0
24-06-2020 27.7 (15:40) 19.2 (00:00) 23.5 7.78 (13:40) 5 (14:00) 0 0 0 0 0
23-06-2020 26.8 (15:30) 20.2 (00:00) 23.5 8.61 (16:00) 6.11 (15:40) 0 0 0 0 0
22-06-2020 27.1 (15:30) 19.6 (00:00) 23.4 8.33 (18:30) 5.28 (18:20) 0 0 0 0 0
21-06-2020 26.9 (17:10) 19.5 (00:00) 23.2 6.11 (13:30) 3.89 (06:40) 0 0 0 0 0
20-06-2020 26.1 (16:00) 18.3 (00:00) 22.2 6.94 (13:20) 4.44 (12:00) 0 0 0 0 0
19-06-2020 23.3 (15:40) 18.3 (00:00) 20.8 6.11 (11:30) 4.17 (11:40) 0 0 0 0 0
18-06-2020 23.8 (14:50) 17.5 (00:00) 20.6 9.17 (14:20) 6.11 (15:00) 0 0 0 0 0
17-06-2020 23.7 (13:50) 16.4 (00:00) 20.1 6.94 (13:20) 3.89 (13:50) 0 0 0 0 0
16-06-2020 24.7 (13:00) 18.1 (00:00) 21.4 10.83 (13:10) 7.22 (13:40) 4.8 0 0 4.8 0
15-06-2020 25.7 (16:00) 17.8 (00:00) 21.8 7.78 (14:00) 4.72 (03:50) 0 0 0 0 0
14-06-2020 25.9 (15:20) 17.5 (00:00) 21.7 8.89 (12:30) 5.56 (12:40) 0 0 0 0 0
13-06-2020 25.9 (17:20) 16.9 (00:00) 21.4 9.17 (17:40) 5.83 (17:40) 0 0 0 0 0
12-06-2020 26.9 (18:10) 17.1 (00:00) 22 14.17 (19:10) 8.61 (16:10) 0 0 0 0 0
11-06-2020 25.8 (17:40) 18 (00:00) 21.9 9.72 (16:20) 6.11 (13:30) 0 0 0 0 0

Gráficas

Temp. máximas Temp. mínimas Temp. medias Precipitaciones Rachas de viento máximas Velocidades máximas media en intervalos de 10 minutos

Datos horarios

Fecha y hora oficial Temperatura (ºC) Velocidad del viento (km/h) Dirección del viento Racha (km/h) Dirección de racha Precipitación (mm) Presión (hPa) Tendencia (hPa) Humedad (%)
2020-07-10 23:00:00 24.8 0 Calma 7 Nordeste 0 -- -- 85
2020-07-10 22:00:00 25.2 2 Nordeste 13 Sudeste 0 -- -- 85
2020-07-10 21:00:00 26.3 6 Este 20 Este 0 -- -- 81
2020-07-10 20:00:00 27 16 Este 26 Este 0 -- -- 77
2020-07-10 19:00:00 27.7 7 Este 21 Este 0 -- -- 74
2020-07-10 18:00:00 28.6 9 Sudeste 19 Sudeste 0 -- -- 68
2020-07-10 17:00:00 28.6 14 Este 25 Este 0 -- -- 68
2020-07-10 16:00:00 29.6 15 Sudeste 28 Este 0 -- -- 61
2020-07-10 15:00:00 30.4 19 Este 33 Este 0 -- -- 46
2020-07-10 14:00:00 30.5 21 Este 34 Este 0 -- -- 39
2020-07-10 13:00:00 31.2 19 Este 27 Este 0 -- -- 36
2020-07-10 12:00:00 30.5 14 Este 22 Sudeste 0 -- -- 42
2020-07-10 11:00:00 29.1 7 Este 16 Este 0 -- -- 51
2020-07-10 10:00:00 27.6 8 Nordeste 16 Nordeste 0 -- -- 52
2020-07-10 09:00:00 25.5 6 Norte 17 Norte 0 -- -- 64
2020-07-10 08:00:00 22.6 10 Norte 22 Norte 0 -- -- 77
2020-07-10 07:00:00 21.7 15 Norte 24 Norte 0 -- -- 81
2020-07-10 06:00:00 22.1 15 Norte 21 Noroeste 0 -- -- 78
2020-07-10 05:00:00 22.2 10 Noroeste 19 Noroeste 0 -- -- 79
2020-07-10 04:00:00 22.2 12 Noroeste 18 Norte 0 -- -- 79
2020-07-10 03:00:00 22.4 9 Noroeste 13 Noroeste 0 -- -- 80
2020-07-10 02:00:00 22.9 10 Noroeste 15 Noroeste 0 -- -- 81
2020-07-10 01:00:00 23.3 6 Noroeste 10 Noroeste 0 -- -- 83
2020-07-10 00:00:00 24.1 7 Noroeste 9 Noroeste 0 -- -- 83
2020-07-09 23:00:00 24.9 0 Calma 6 Noroeste 0 -- -- 76
2020-07-09 22:00:00 26 3 Sudeste 9 Sudoeste 0 -- -- 73
2020-07-09 21:00:00 26.8 3 Norte 6 Sudeste 0 -- -- 70
2020-07-09 20:00:00 27.6 4 Sudoeste 18 Sudeste 0 -- -- 69
2020-07-09 19:00:00 27.6 13 Sudeste 22 Sur 0 -- -- 70
2020-07-09 18:00:00 28.4 13 Sudeste 21 Sur 0 -- -- 64
2020-07-09 17:00:00 29.5 11 Sudeste 22 Sudeste 0 -- -- 57
2020-07-09 16:00:00 29.8 8 Sudeste 18 Sudeste 0 -- -- 58
2020-07-09 15:00:00 28.9 8 Sudeste 16 Sudeste 0 -- -- 63
2020-07-09 14:00:00 27.6 11 Sudeste 23 Este 0 -- -- 68
2020-07-09 13:00:00 27.5 13 Este 23 Sudeste 0 -- -- 71
2020-07-09 12:00:00 26.9 6 Sudeste 28 Norte 0 -- -- 68
2020-07-09 11:00:00 24.5 11 Norte 22 Nordeste 0 -- -- 80
2020-07-09 10:00:00 24.9 12 Nordeste 21 Nordeste 0 -- -- 82
2020-07-09 09:00:00 25.9 5 Este 10 Nordeste 0 -- -- 79
2020-07-09 08:00:00 23.6 5 Noroeste 8 Noroeste 0 -- -- 81
2020-07-09 07:00:00 22.7 2 Este 12 Norte 0 -- -- 82
2020-07-09 06:00:00 22.6 4 Sudoeste 23 Norte 0 -- -- 86
2020-07-09 05:00:00 22.7 13 Noroeste 20 Noroeste 0 -- -- 86
2020-07-09 04:00:00 23.4 9 Noroeste 14 Noroeste 0 -- -- 83
2020-07-09 03:00:00 23.5 7 Noroeste 10 Noroeste 0 -- -- 83
2020-07-09 02:00:00 24 8 Noroeste 15 Noroeste 0 -- -- 84
2020-07-09 01:00:00 24.9 2 Norte 10 Este 0 -- -- 82
2020-07-09 00:00:00 25.3 5 Nordeste 14 Sudoeste 0 -- -- 81
2020-07-08 23:00:00 25.3 6 Sur 22 Este 0 -- -- 81
2020-07-08 22:00:00 25.5 9 Este 14 Nordeste 0 -- -- 80
2020-07-08 21:00:00 26 6 Sur 14 Sur 0 -- -- 78
2020-07-08 20:00:00 26.2 8 Sur 28 Sudoeste 0 -- -- 74
2020-07-08 19:00:00 26.3 15 Sur 28 Sudoeste 0 -- -- 75
2020-07-08 18:00:00 27.4 13 Sur 20 Sur 0 -- -- 72
2020-07-08 17:00:00 28.2 12 Sur 22 Sudeste 0 -- -- 68
2020-07-08 16:00:00 27.7 12 Sudeste 22 Sudeste 0 -- -- 66
2020-07-08 15:00:00 27.2 12 Sudeste 24 Este 0 -- -- 70
2020-07-08 14:00:00 28.5 13 Sudeste 23 Sur 0 -- -- 66
2020-07-08 13:00:00 28.3 9 Sudeste 21 Sudeste 0 -- -- 67
2020-07-08 12:00:00 27.7 11 Sudeste 18 Sudeste 0 -- -- 66
2020-07-08 11:00:00 27.5 12 Sudeste 18 Sudeste 0 -- -- 66
2020-07-08 10:00:00 26 2 Este 12 Norte 0 -- -- 72
2020-07-08 09:00:00 24.8 9 Norte 15 Noroeste 0 -- -- 75
2020-07-08 08:00:00 22.8 11 Noroeste 20 Norte 0 -- -- 80
2020-07-08 07:00:00 22.2 13 Noroeste 20 Norte 0 -- -- 80
2020-07-08 06:00:00 22 14 Noroeste 19 Noroeste 0 -- -- 81
2020-07-08 05:00:00 21.8 13 Noroeste 18 Noroeste 0 -- -- 83
2020-07-08 04:00:00 22.1 12 Norte 17 Norte 0 -- -- 82
2020-07-08 03:00:00 22.3 9 Noroeste 13 Noroeste 0 -- -- 82
2020-07-08 02:00:00 22.5 9 Noroeste 15 Noroeste 0 -- -- 81
2020-07-08 01:00:00 22.7 8 Noroeste 12 Noroeste 0 -- -- 81
2020-07-08 00:00:00 23.3 5 Noroeste 8 Noroeste 0 -- -- 79
2020-07-07 23:00:00 23.9 5 Noroeste 6 Noroeste 0 -- -- 77
2020-07-07 22:00:00 24.9 4 Sur 7 Sur 0 -- -- 73
2020-07-07 21:00:00 25.6 5 Sur 15 Sudeste 0 -- -- 70
2020-07-07 20:00:00 26.4 9 Sur 15 Sudeste 0 -- -- 65
2020-07-07 19:00:00 26.9 9 Sur 18 Sudeste 0 -- -- 62
2020-07-07 18:00:00 27.2 10 Sudeste 22 Sudeste 0 -- -- 58
2020-07-07 17:00:00 27.5 11 Sudeste 24 Sudeste 0 -- -- 58
2020-07-07 16:00:00 27.6 13 Sur 25 Sudeste 0 -- -- 57
2020-07-07 15:00:00 27.5 13 Sudeste 22 Sudeste 0 -- -- 55
2020-07-07 14:00:00 27.5 14 Sudeste 24 Sudeste 0 -- -- 55
2020-07-07 13:00:00 27.4 13 Sudeste 22 Sudeste 0 -- -- 54
2020-07-07 12:00:00 27.6 12 Sudeste 21 Sudeste 0 -- -- 54
2020-07-07 11:00:00 27.3 10 Sudeste 16 Sudeste 0 -- -- 55
2020-07-07 10:00:00 27.2 8 Sudeste 23 Sur 0 -- -- 55
2020-07-07 09:00:00 26.6 5 Este 10 Sudeste 0 -- -- 59
2020-07-07 08:00:00 24.8 2 Noroeste 5 Oeste 0 -- -- 70
2020-07-07 07:00:00 23.8 4 Nordeste 11 Norte 0 -- -- 71
2020-07-07 06:00:00 22.5 6 Norte 17 Norte 0 -- -- 40
2020-07-07 05:00:00 23.6 10 Noroeste 13 Noroeste 0 -- -- 34
2020-07-07 04:00:00 23.2 4 Noroeste 14 Norte 0 -- -- 39
2020-07-07 03:00:00 23.7 9 Noroeste 15 Norte 0 -- -- 44
2020-07-07 02:00:00 23.3 4 Noroeste 13 Noroeste 0 -- -- 57
2020-07-07 01:00:00 24.2 9 Noroeste 14 Noroeste 0 -- -- 63
2020-07-07 00:00:00 24.2 7 Noroeste 10 Noroeste 0 -- -- 60
2020-07-06 23:00:00 24.7 9 Noroeste 12 Noroeste 0 -- -- 70
2020-07-06 22:00:00 26 2 Este 8 Sur 0 -- -- 68
2020-07-06 21:00:00 27.3 6 Sur 15 Sur 0 -- -- 65
2020-07-06 20:00:00 28 9 Sur 19 Sur 0 -- -- 61
2020-07-06 19:00:00 28.4 13 Sur 18 Sudeste 0 -- -- 66
2020-07-06 18:00:00 28.9 12 Sudeste 19 Sur 0 -- -- 67
2020-07-06 17:00:00 29 10 Sur 18 Sudeste 0 -- -- 67
2020-07-06 16:00:00 29.5 10 Sur 19 Sudeste 0 -- -- 65
2020-07-06 15:00:00 29.7 10 Sudeste 18 Sur 0 -- -- 60
2020-07-06 14:00:00 29.2 10 Sudeste 20 Sudeste 0 -- -- 63
2020-07-06 13:00:00 28.6 12 Sudeste 21 Sudeste 0 -- -- 62
2020-07-06 12:00:00 28.1 10 Sur 18 Sudeste 0 -- -- 66
2020-07-06 11:00:00 28 10 Sur 16 Sudeste 0 -- -- 63
2020-07-06 10:00:00 27.9 5 Sudeste 10 Sudeste 0 -- -- 63
2020-07-06 09:00:00 26.2 6 Nordeste 12 Nordeste 0 -- -- 61
2020-07-06 08:00:00 24.7 5 Norte 14 Noroeste 0 -- -- 63
2020-07-06 07:00:00 22.2 8 Noroeste 12 Noroeste 0 -- -- 70
2020-07-06 06:00:00 21.7 6 Noroeste 8 Noroeste 0 -- -- 73
2020-07-06 05:00:00 21.3 4 Noroeste 9 Noroeste 0 -- -- 76
2020-07-06 04:00:00 21.9 7 Noroeste 10 Noroeste 0 -- -- 73
2020-07-06 03:00:00 22 9 Noroeste 21 Noroeste 0 -- -- 73
2020-07-06 02:00:00 22.2 10 Noroeste 13 Noroeste 0 -- -- 73
2020-07-06 01:00:00 21.8 6 Noroeste 10 Noroeste 0 -- -- 68
2020-07-06 00:00:00 22.7 4 Noroeste 6 Noroeste 0 -- -- 73
2020-07-05 23:00:00 23.7 4 Noroeste 11 Sudoeste 0 -- -- 73
2020-07-05 22:00:00 25.2 6 Sudoeste 15 Sudoeste 0 -- -- 70
2020-07-05 21:00:00 26.2 9 Sur 22 Sur 0 -- -- 70
2020-07-05 20:00:00 26.8 15 Sur 25 Sur 0 -- -- 68
2020-07-05 19:00:00 27.6 14 Sur 27 Sur 0 -- -- 66
2020-07-05 18:00:00 27.8 18 Sur 28 Sur 0 -- -- 65
2020-07-05 17:00:00 28.3 17 Sur 27 Sudeste 0 -- -- 66
2020-07-05 16:00:00 28.3 12 Sur 22 Sudeste 0 -- -- 69
2020-07-05 15:00:00 28.2 13 Sur 25 Sudeste 0 -- -- 68
2020-07-05 14:00:00 27.9 12 Sur 25 Sudeste 0 -- -- 71
2020-07-05 13:00:00 27.7 13 Sudeste 20 Sudeste 0 -- -- 67
2020-07-05 12:00:00 27.7 9 Sudeste 18 Sudeste 0 -- -- 62
2020-07-05 11:00:00 27.5 12 Sudeste 18 Sudeste 0 -- -- 65
2020-07-05 10:00:00 26.7 7 Este 13 Este 0 -- -- 58
2020-07-05 09:00:00 24.8 0 Calma 15 Noroeste 0 -- -- 56
2020-07-05 08:00:00 21.7 10 Norte 20 Noroeste 0 -- -- 62
2020-07-05 07:00:00 20.8 13 Noroeste 18 Noroeste 0 -- -- 67
2020-07-05 06:00:00 20.3 13 Noroeste 21 Noroeste 0 -- -- 73
2020-07-05 05:00:00 20.5 13 Noroeste 20 Noroeste 0 -- -- 83
2020-07-05 04:00:00 21.2 9 Noroeste 11 Noroeste 0 -- -- 88
2020-07-05 03:00:00 21.2 4 Noroeste 9 Noroeste 0 -- -- 88
2020-07-05 02:00:00 21.9 7 Noroeste 10 Noroeste 0 -- -- 86
2020-07-05 01:00:00 22.4 2 Noroeste 6 Noroeste 0 -- -- 84
2020-07-05 00:00:00 23.7 3 Sudoeste 9 Oeste 0 -- -- 79
2020-07-04 23:00:00 24.4 3 Oeste 11 Sur 0 -- -- 78
2020-07-04 22:00:00 24.7 7 Sur 16 Sur 0 -- -- 78
2020-07-04 21:00:00 25.3 10 Sur 16 Sur 0 -- -- 77
2020-07-04 20:00:00 25.8 8 Sur 16 Sudeste 0 -- -- 74
2020-07-04 19:00:00 26 9 Sur 18 Sur 0 -- -- 69
2020-07-04 18:00:00 26.3 8 Sur 18 Sudeste 0 -- -- 64
2020-07-04 17:00:00 25.9 10 Sudeste 20 Sudeste 0 -- -- 63
2020-07-04 16:00:00 25.8 12 Sudeste 23 Sudeste 0 -- -- 62
2020-07-04 15:00:00 26 13 Sudeste 24 Sudeste 0 -- -- 61
2020-07-04 14:00:00 26.4 14 Sudeste 26 Este 0 -- -- 57
2020-07-04 13:00:00 26.4 13 Sudeste 21 Sudeste 0 -- -- 55
2020-07-04 12:00:00 25.9 11 Este 18 Sudeste 0 -- -- 56
2020-07-04 11:00:00 24.8 6 Sudeste 12 Este 0 -- -- 63
2020-07-04 10:00:00 23.4 3 Sudeste 16 Norte 0 -- -- 66
2020-07-04 09:00:00 21.8 11 Noroeste 18 Norte 0 -- -- 66
2020-07-04 08:00:00 21 13 Noroeste 20 Noroeste 0 -- -- 66
2020-07-04 07:00:00 20.1 14 Noroeste 19 Noroeste 0 -- -- 74
2020-07-04 06:00:00 20.1 16 Noroeste 22 Noroeste 0 -- -- 71
2020-07-04 05:00:00 20.5 15 Noroeste 21 Norte 0 -- -- 71
2020-07-04 04:00:00 21.3 13 Norte 18 Noroeste 0 -- -- 84
2020-07-04 03:00:00 21 13 Noroeste 17 Norte 0 -- -- 87
2020-07-04 02:00:00 21.9 6 Norte 9 Noroeste 0 -- -- 85
2020-07-04 01:00:00 22.6 7 Noroeste 12 Sudoeste 0 -- -- 82
2020-07-04 00:00:00 23 8 Sudoeste 11 Oeste 0 -- -- 80
2020-07-03 23:00:00 23.3 4 Oeste 8 Sudoeste 0 -- -- 78
2020-07-03 22:00:00 24.4 6 Sudoeste 15 Sudoeste 0 -- -- 74
2020-07-03 21:00:00 24.9 10 Sur 24 Sur 0 -- -- 73
2020-07-03 20:00:00 25.6 14 Sur 20 Sur 0 -- -- 69
2020-07-03 19:00:00 25.5 13 Sur 22 Sur 0 -- -- 70
2020-07-03 18:00:00 25.9 12 Sur 24 Sudeste 0 -- -- 69
2020-07-03 17:00:00 25.8 14 Sur 32 Sur 0 -- -- 65
2020-07-03 16:00:00 27.4 15 Sur 27 Sudeste 0 -- -- 57
2020-07-03 15:00:00 27.5 16 Sudeste 27 Sudeste 0 -- -- 54
2020-07-03 14:00:00 26.5 13 Sudeste 21 Sur 0 -- -- 53
2020-07-03 13:00:00 28.1 14 Sudeste 21 Sur 0 -- -- 50
2020-07-03 12:00:00 26.5 12 Este 19 Nordeste 0 -- -- 46
2020-07-03 11:00:00 25.6 12 Nordeste 22 Norte 0 -- -- 48
2020-07-03 10:00:00 23.9 12 Norte 24 Norte 0 -- -- 53
2020-07-03 09:00:00 23.2 16 Norte 28 Norte 0 -- -- 54
2020-07-03 08:00:00 22.7 15 Norte 32 Norte 0 -- -- 54
2020-07-03 07:00:00 22.9 17 Norte 30 Norte 0 -- -- 53
2020-07-03 06:00:00 23.3 19 Norte 33 Norte 0 -- -- 53
2020-07-03 05:00:00 23 15 Norte 29 Norte 0 -- -- 56
2020-07-03 04:00:00 23 13 Norte 34 Norte 0 -- -- 59
2020-07-03 03:00:00 23.1 17 Norte 28 Norte 0 -- -- 61
2020-07-03 02:00:00 23.6 13 Norte 21 Norte 0 -- -- 67
2020-07-03 01:00:00 23.7 11 Norte 21 Norte 0 -- -- 86
2020-07-03 00:00:00 24.1 8 Norte 20 Norte 0 -- -- 84
2020-07-02 23:00:00 24.7 3 Norte 10 Nordeste 0 -- -- 82
2020-07-02 22:00:00 25.3 4 Nordeste 11 Este 0 -- -- 81
2020-07-02 21:00:00 26.1 6 Este 14 Este 0 -- -- 78
2020-07-02 20:00:00 27.5 3 Nordeste 10 Este 0 -- -- 73
2020-07-02 19:00:00 26.6 6 Norte 18 Nordeste 0 -- -- 73
2020-07-02 18:00:00 25.5 8 Este 30 Nordeste 0.2 -- -- 81
2020-07-02 17:00:00 28.8 17 Este 27 Este 0 -- -- 66
2020-07-02 16:00:00 28.7 15 Este 28 Este 0 -- -- 67
2020-07-02 15:00:00 28.8 17 Sudeste 32 Este 0 -- -- 65
2020-07-02 14:00:00 29.1 18 Este 32 Este 0 -- -- 64
2020-07-02 13:00:00 28.8 18 Este 31 Este 0 -- -- 62
2020-07-02 12:00:00 28 19 Este 29 Este 0 -- -- 66
2020-07-02 11:00:00 27.2 16 Este 25 Este 0 -- -- 72
2020-07-02 10:00:00 26.7 10 Nordeste 22 Norte 0 -- -- 69
2020-07-02 09:00:00 26.2 11 Norte 22 Norte 0 -- -- 74
2020-07-02 08:00:00 24.1 13 Norte 21 Norte 0 -- -- 84
2020-07-02 07:00:00 23 13 Noroeste 17 Norte 0 -- -- 88
2020-07-02 06:00:00 23.4 10 Norte 22 Norte 0 -- -- 88
2020-07-02 05:00:00 23.7 12 Norte 21 Norte 0 -- -- 86
2020-07-02 04:00:00 23.4 14 Norte 20 Noroeste 0 -- -- 88
2020-07-02 03:00:00 24.2 10 Norte 15 Norte 0 -- -- 87
2020-07-02 02:00:00 24.1 7 Norte 14 Norte 0 -- -- 87
2020-07-02 01:00:00 24.1 7 Norte 10 Norte 0 -- -- 87
2020-07-02 00:00:00 24.4 2 Noroeste 8 Noroeste 0 -- -- 84
2020-07-01 23:00:00 25.1 4 Noroeste 6 Noroeste 0 -- -- 83
2020-07-01 22:00:00 26.1 2 Nordeste 8 Sudeste 0 -- -- 79
2020-07-01 21:00:00 27 6 Sur 13 Sur 0 -- -- 76
2020-07-01 20:00:00 27.9 8 Sur 14 Sudeste 0 -- -- 71
2020-07-01 19:00:00 28.6 7 Sur 17 Sudeste 0 -- -- 68
2020-07-01 18:00:00 28.9 8 Sur 19 Sur 0 -- -- 64
2020-07-01 17:00:00 29.2 11 Sur 19 Sur 0 -- -- 66
2020-07-01 16:00:00 29.4 10 Sur 21 Sur 0 -- -- 65
2020-07-01 15:00:00 29.2 11 Sudeste 22 Sur 0 -- -- 63
2020-07-01 14:00:00 29 15 Sur 23 Sudeste 0 -- -- 63
2020-07-01 13:00:00 28.6 13 Sur 21 Sudeste 0 -- -- 66
2020-07-01 12:00:00 28.4 12 Sur 20 Sur 0 -- -- 67
2020-07-01 11:00:00 27.6 10 Sur 18 Sudeste 0 -- -- 69
2020-07-01 10:00:00 27.2 6 Sur 13 Sur 0 -- -- 70
2020-07-01 09:00:00 24.9 10 Norte 17 Norte 0 -- -- 76
2020-07-01 08:00:00 22.2 12 Noroeste 20 Noroeste 0 -- -- 86
2020-07-01 07:00:00 21.3 13 Noroeste 23 Noroeste 0 -- -- 86
2020-07-01 06:00:00 21.3 17 Noroeste 24 Noroeste 0 -- -- 88
2020-07-01 05:00:00 21.6 17 Noroeste 23 Norte 0 -- -- 88
2020-07-01 04:00:00 21.7 15 Noroeste 22 Norte 0 -- -- 90
2020-07-01 03:00:00 22 16 Noroeste 21 Noroeste 0 -- -- 89
2020-07-01 02:00:00 22.5 14 Noroeste 19 Noroeste 0 -- -- 88
2020-07-01 01:00:00 23.1 6 Noroeste 9 Noroeste 0 -- -- 86
2020-07-01 00:00:00 23.7 6 Noroeste 13 Noroeste 0 -- -- 86
2020-06-30 23:00:00 24.4 5 Noroeste 8 Noroeste 0 -- -- 82
2020-06-30 22:00:00 25.5 4 Sur 9 Sur 0 -- -- 79
2020-06-30 21:00:00 26.2 6 Sur 12 Sudeste 0 -- -- 76
2020-06-30 20:00:00 27.1 7 Sudeste 13 Sudeste 0 -- -- 71
2020-06-30 19:00:00 27.6 8 Sur 17 Sur 0 -- -- 68
2020-06-30 18:00:00 28 11 Sudeste 20 Sur 0 -- -- 68
2020-06-30 17:00:00 28.3 10 Sur 23 Sur 0 -- -- 65
2020-06-30 16:00:00 28.4 13 Sudeste 23 Sur 0 -- -- 68
2020-06-30 15:00:00 28.5 12 Sudeste 23 Sur 0 -- -- 67
2020-06-30 14:00:00 28.3 15 Sur 26 Sudeste 0 -- -- 67
2020-06-30 13:00:00 28.2 14 Sudeste 21 Este 0 -- -- 67
2020-06-30 12:00:00 28.1 12 Sudeste 19 Sudeste 0 -- -- 68
2020-06-30 11:00:00 27.8 6 Sudeste 16 Sudeste 0 -- -- 68
2020-06-30 10:00:00 26 6 Nordeste 14 Noroeste 0 -- -- 72
2020-06-30 09:00:00 24.3 10 Norte 17 Norte 0 -- -- 82
2020-06-30 08:00:00 22.5 11 Noroeste 19 Noroeste 0 -- -- 88
2020-06-30 07:00:00 21.6 14 Norte 20 Noroeste 0 -- -- 90
2020-06-30 06:00:00 21.5 15 Noroeste 19 Noroeste 0 -- -- 90
2020-06-30 05:00:00 21.7 15 Noroeste 19 Noroeste 0 -- -- 90
2020-06-30 04:00:00 21.6 12 Noroeste 16 Noroeste 0 -- -- 90
2020-06-30 03:00:00 21.9 5 Noroeste 7 Noroeste 0 -- -- 90
2020-06-30 02:00:00 22.4 7 Noroeste 9 Noroeste 0 -- -- 89
2020-06-30 01:00:00 22.7 7 Noroeste 9 Noroeste 0 -- -- 87
2020-06-30 00:00:00 23.1 4 Noroeste 6 Noroeste 0 -- -- 86
2020-06-29 23:00:00 23.6 3 Noroeste 5 Noroeste 0 -- -- 83
2020-06-29 22:00:00 25 0 Calma 6 Sur 0 -- -- 79
2020-06-29 21:00:00 25.8 3 Sudeste 12 Sudeste 0 -- -- 76
2020-06-29 20:00:00 26.8 5 Sudeste 13 Sudeste 0 -- -- 72
2020-06-29 19:00:00 27.3 7 Sur 20 Sudeste 0 -- -- 70
2020-06-29 18:00:00 27.5 10 Sudeste 22 Sur 0 -- -- 70
2020-06-29 17:00:00 27.7 10 Sudeste 26 Sur 0 -- -- 66
2020-06-29 16:00:00 27.6 12 Sudeste 24 Sudeste 0 -- -- 69
2020-06-29 15:00:00 28.3 14 Sudeste 26 Sudeste 0 -- -- 68
2020-06-29 14:00:00 28.4 14 Sudeste 25 Sudeste 0 -- -- 66
2020-06-29 13:00:00 27.9 12 Sudeste 22 Sudeste 0 -- -- 68
2020-06-29 12:00:00 27.8 12 Sudeste 21 Sudeste 0 -- -- 69
2020-06-29 11:00:00 26.9 10 Sudeste 17 Sur 0 -- -- 71
2020-06-29 10:00:00 26.7 6 Este 13 Este 0 -- -- 74
2020-06-29 09:00:00 25.2 3 Este 14 Noroeste 0 -- -- 80
2020-06-29 08:00:00 22.3 13 Noroeste 19 Norte 0 -- -- 83
2020-06-29 07:00:00 21.4 13 Noroeste 19 Norte 0 -- -- 88
2020-06-29 06:00:00 21.4 9 Noroeste 17 Norte 0 -- -- 88
2020-06-29 05:00:00 21.4 6 Noroeste 13 Noroeste 0 -- -- 88
2020-06-29 04:00:00 21.5 4 Norte 8 Noroeste 0 -- -- 84
2020-06-29 03:00:00 21.9 4 Noroeste 6 Noroeste 0 -- -- 82
2020-06-29 02:00:00 22.2 4 Oeste 8 Noroeste 0 -- -- 84
2020-06-29 01:00:00 22.8 6 Noroeste 8 Noroeste 0 -- -- 85
2020-06-29 00:00:00 23.6 5 Noroeste 6 Noroeste 0 -- -- 84
2020-06-28 23:00:00 24.1 5 Oeste 10 Sur 0 -- -- 83
2020-06-28 22:00:00 25.1 5 Sur 9 Sudoeste 0 -- -- 80
2020-06-28 21:00:00 26 5 Sur 11 Sudeste 0 -- -- 76
2020-06-28 20:00:00 26.7 6 Sudeste 16 Sudeste 0 -- -- 73
2020-06-28 19:00:00 27.5 9 Sur 19 Sur 0 -- -- 70
2020-06-28 18:00:00 27.5 9 Sudeste 18 Sudeste 0 -- -- 70
2020-06-28 17:00:00 28.2 10 Sudeste 22 Sur 0 -- -- 67
2020-06-28 16:00:00 28.3 13 Sur 24 Sur 0 -- -- 65
2020-06-28 15:00:00 28 13 Sur 25 Sur 0 -- -- 67
2020-06-28 14:00:00 28.1 12 Sudeste 20 Sudeste 0 -- -- 67
2020-06-28 13:00:00 27.7 14 Sur 23 Sur 0 -- -- 67
2020-06-28 12:00:00 27.6 13 Sudeste 19 Sudeste 0 -- -- 67
2020-06-28 11:00:00 27.2 10 Sur 15 Sur 0 -- -- 66
2020-06-28 10:00:00 26.7 4 Sur 11 Sudeste 0 -- -- 68
2020-06-28 09:00:00 24.9 4 Nordeste 17 Noroeste 0 -- -- 77
2020-06-28 08:00:00 21.9 14 Noroeste 21 Noroeste 0 -- -- 80
2020-06-28 07:00:00 21 15 Noroeste 20 Noroeste 0 -- -- 82
2020-06-28 06:00:00 21.2 9 Noroeste 13 Noroeste 0 -- -- 82
2020-06-28 05:00:00 21.5 3 Norte 13 Noroeste 0 -- -- 81
2020-06-28 04:00:00 21.7 9 Norte 19 Norte 0 -- -- 82
2020-06-28 03:00:00 22.1 8 Noroeste 11 Noroeste 0 -- -- 82
2020-06-28 02:00:00 22.2 4 Noroeste 8 Noroeste 0 -- -- 84
2020-06-28 01:00:00 22.9 5 Noroeste 10 Noroeste 0 -- -- 82
2020-06-28 00:00:00 23.4 4 Noroeste 9 Noroeste 0 -- -- 81
2020-06-27 23:00:00 23.9 3 Noroeste 9 Noroeste 0 -- -- 79
2020-06-27 22:00:00 25.3 3 Sur 9 Sur 0 -- -- 75
2020-06-27 21:00:00 26.2 7 Sur 12 Sur 0 -- -- 71
2020-06-27 20:00:00 27.3 8 Sur 13 Sudeste 0 -- -- 64
2020-06-27 19:00:00 27.7 9 Sudeste 17 Sur 0 -- -- 59
2020-06-27 18:00:00 28.1 12 Sur 19 Sudeste 0 -- -- 59
2020-06-27 17:00:00 28.3 10 Sudeste 19 Sur 0 -- -- 57
2020-06-27 16:00:00 28.5 10 Sudeste 21 Sur 0 -- -- 60
2020-06-27 15:00:00 28.3 11 Sudeste 23 Sudeste 0 -- -- 63
2020-06-27 14:00:00 27.9 14 Sudeste 22 Sudeste 0 -- -- 67
2020-06-27 13:00:00 28.2 11 Sudeste 18 Sur 0 -- -- 64
2020-06-27 12:00:00 27.9 12 Sudeste 18 Sudeste 0 -- -- 62
2020-06-27 11:00:00 28.2 10 Sudeste 18 Sudeste 0 -- -- 55
2020-06-27 10:00:00 27.4 5 Este 13 Noroeste 0 -- -- 48
2020-06-27 09:00:00 24.2 9 Norte 20 Noroeste 0 -- -- 58
2020-06-27 08:00:00 22.2 12 Norte 19 Noroeste 0 -- -- 63
2020-06-27 07:00:00 21.3 12 Noroeste 19 Noroeste 0 -- -- 67
2020-06-27 06:00:00 21 13 Noroeste 19 Norte 0 -- -- 71
2020-06-27 05:00:00 21.4 11 Noroeste 15 Noroeste 0 -- -- 72
2020-06-27 04:00:00 22.2 2 Sudoeste 10 Noroeste 0 -- -- 71
2020-06-27 03:00:00 23 6 Noroeste 12 Noroeste 0 -- -- 72
2020-06-27 02:00:00 22.8 9 Noroeste 14 Noroeste 0 -- -- 71
2020-06-27 01:00:00 23 9 Noroeste 14 Noroeste 0 -- -- 72
2020-06-27 00:00:00 23.9 5 Noroeste 12 Noroeste 0 -- -- 70
2020-06-26 23:00:00 24.2 6 Noroeste 12 Noroeste 0 -- -- 68
2020-06-26 22:00:00 25 2 Noroeste 6 Este 0 -- -- 66
2020-06-26 21:00:00 26.5 4 Sudeste 10 Sudeste 0 -- -- 61
2020-06-26 20:00:00 27.8 7 Sudeste 12 Sudeste 0 -- -- 52
2020-06-26 19:00:00 28.5 8 Sudeste 18 Sudeste 0 -- -- 48
2020-06-26 18:00:00 28.7 12 Sur 24 Sur 0 -- -- 46
2020-06-26 17:00:00 29.1 15 Sur 23 Sudeste 0 -- -- 44
2020-06-26 16:00:00 29.6 13 Sur 23 Sur 0 -- -- 44
2020-06-26 15:00:00 29.7 13 Sur 25 Sur 0 -- -- 42
2020-06-26 14:00:00 28.8 15 Sur 21 Sudeste 0 -- -- 50
2020-06-26 13:00:00 28.7 12 Sur 20 Sudeste 0 -- -- 50
2020-06-26 12:00:00 28 12 Sur 19 Sur 0 -- -- 51
2020-06-26 11:00:00 27.9 8 Sur 15 Sur 0 -- -- 50
2020-06-26 10:00:00 26.9 4 Sudeste 10 Norte 0 -- -- 54
2020-06-26 09:00:00 24.2 8 Norte 18 Noroeste 0 -- -- 60
2020-06-26 08:00:00 21.6 14 Noroeste 21 Noroeste 0 -- -- 61
2020-06-26 07:00:00 20.4 14 Noroeste 23 Noroeste 0 -- -- 63
2020-06-26 06:00:00 20.3 17 Noroeste 25 Norte 0 -- -- 61
2020-06-26 05:00:00 20.4 15 Noroeste 22 Noroeste 0 -- -- 61
2020-06-26 04:00:00 21.2 12 Noroeste 19 Norte 0 -- -- 58
2020-06-26 03:00:00 21 12 Noroeste 24 Noroeste 0 -- -- 59
2020-06-26 02:00:00 21.5 11 Noroeste 20 Norte 0 -- -- 59
2020-06-26 01:00:00 21.3 3 Noroeste 9 Noroeste 0 -- -- 62
2020-06-26 00:00:00 22.2 6 Noroeste 8 Noroeste 0 -- -- 58
2020-06-25 23:00:00 22.6 3 Noroeste 6 Noroeste 0 -- -- 58
2020-06-25 22:00:00 24.1 3 Noroeste 6 Noroeste 0 -- -- 54
2020-06-25 21:00:00 27.6 3 Sudeste 9 Sudoeste 0 -- -- 44
2020-06-25 20:00:00 28.2 6 Sur 14 Sudeste 0 -- -- 42
2020-06-25 19:00:00 28.3 11 Sur 21 Sur 0 -- -- 42
2020-06-25 18:00:00 27.9 11 Sur 18 Sudoeste 0 -- -- 60
2020-06-25 17:00:00 27.8 9 Sur 18 Sur 0 -- -- 59
2020-06-25 16:00:00 27.6 10 Sudeste 19 Sudeste 0 -- -- 68
2020-06-25 15:00:00 28.3 10 Sudeste 20 Sudeste 0 -- -- 55
2020-06-25 14:00:00 27.5 11 Sudeste 17 Sudeste 0 -- -- 63
2020-06-25 13:00:00 27.2 9 Sudeste 18 Sudeste 0 -- -- 63
2020-06-25 12:00:00 27.2 11 Sudeste 21 Sudeste 0 -- -- 61
2020-06-25 11:00:00 27.5 10 Este 18 Sudeste 0 -- -- 57
2020-06-25 10:00:00 26.3 5 Este 12 Este 0 -- -- 57
2020-06-25 09:00:00 23.8 10 Norte 17 Noroeste 0 -- -- 67
2020-06-25 08:00:00 21.4 11 Noroeste 21 Norte 0 -- -- 72
2020-06-25 07:00:00 20.4 6 Noroeste 16 Noroeste 0 -- -- 75
2020-06-25 06:00:00 20.1 9 Noroeste 14 Noroeste 0 -- -- 75
2020-06-25 05:00:00 19.9 9 Noroeste 17 Noroeste 0 -- -- 78
2020-06-25 04:00:00 20.6 3 Noroeste 9 Sur 0 -- -- 75
2020-06-25 03:00:00 22.3 6 Sur 20 Oeste 0 -- -- 68
2020-06-25 02:00:00 21.8 8 Oeste 17 Noroeste 0 -- -- 71
2020-06-25 01:00:00 21.9 6 Noroeste 13 Noroeste 0 -- -- 73
2020-06-25 00:00:00 23 4 Oeste 9 Oeste 0 -- -- 75
2020-06-24 23:00:00 23.6 5 Sudoeste 12 Oeste 0 -- -- 76
2020-06-24 22:00:00 23.8 6 Nordeste 15 Este 0 -- -- 77
2020-06-24 21:00:00 24.9 7 Este 10 Sur 0 -- -- 72
2020-06-24 20:00:00 26 6 Sur 13 Sur 0 -- -- 66
2020-06-24 19:00:00 26 8 Sur 16 Sudeste 0 -- -- 67
2020-06-24 18:00:00 26.4 6 Sur 14 Sur 0 -- -- 61
2020-06-24 17:00:00 26.7 10 Sudeste 19 Sur 0 -- -- 66
2020-06-24 16:00:00 27.5 12 Sur 24 Sur 0 -- -- 63
2020-06-24 15:00:00 27.4 16 Sur 25 Sur 0 -- -- 60
2020-06-24 14:00:00 27.1 18 Sur 28 Sur 0 -- -- 62
2020-06-24 13:00:00 26.9 13 Sur 21 Sur 0 -- -- 65
2020-06-24 12:00:00 26.2 11 Sudeste 21 Sur 0 -- -- 69
2020-06-24 11:00:00 25.5 8 Sur 16 Sur 0 -- -- 70
2020-06-24 10:00:00 24.9 5 Nordeste 11 Sudeste 0 -- -- 73
2020-06-24 09:00:00 23.9 0 Calma 6 Sudeste 0 -- -- 77
2020-06-24 08:00:00 21.5 3 Este 15 Noroeste 0 -- -- 81
2020-06-24 07:00:00 19.5 8 Noroeste 15 Noroeste 0 -- -- 83
2020-06-24 06:00:00 19.3 4 Noroeste 17 Noroeste 0 -- -- 84
2020-06-24 05:00:00 19.8 11 Noroeste 14 Noroeste 0 -- -- 82
2020-06-24 04:00:00 20 8 Noroeste 11 Noroeste 0 -- -- 82
2020-06-24 03:00:00 20.1 2 Noroeste 7 Noroeste 0 -- -- 81
2020-06-24 02:00:00 20.3 6 Noroeste 8 Noroeste 0 -- -- 80
2020-06-24 01:00:00 21.1 6 Noroeste 9 Noroeste 0 -- -- 79
2020-06-24 00:00:00 21.5 2 Norte 4 Norte 0 -- -- 80
2020-06-23 23:00:00 22.2 4 Noroeste 8 Sur 0 -- -- 80
2020-06-23 22:00:00 23.4 5 Sudoeste 17 Sudoeste 0 -- -- 75
2020-06-23 21:00:00 24.3 8 Sur 19 Sur 0 -- -- 75
2020-06-23 20:00:00 25.1 13 Sur 23 Sur 0 -- -- 70
2020-06-23 19:00:00 25.4 16 Sur 25 Sur 0 -- -- 68
2020-06-23 18:00:00 26 17 Sur 28 Sur 0 -- -- 67
2020-06-23 17:00:00 26.3 16 Sur 27 Sur 0 -- -- 64
2020-06-23 16:00:00 26.5 20 Sur 31 Sur 0 -- -- 63
2020-06-23 15:00:00 26.6 19 Sur 29 Sur 0 -- -- 63
2020-06-23 14:00:00 26.1 17 Sur 30 Sudeste 0 -- -- 68
2020-06-23 13:00:00 26 18 Sur 28 Sur 0 -- -- 72
2020-06-23 12:00:00 25.8 17 Sur 27 Sudeste 0 -- -- 71
2020-06-23 11:00:00 25.6 17 Sur 25 Sur 0 -- -- 70
2020-06-23 10:00:00 25.5 12 Sur 17 Sur 0 -- -- 70
2020-06-23 09:00:00 24.2 10 Oeste 15 Sudoeste 0 -- -- 71
2020-06-23 08:00:00 22.6 6 Oeste 10 Oeste 0 -- -- 77
2020-06-23 07:00:00 20.6 5 Oeste 8 Oeste 0 -- -- 83
2020-06-23 06:00:00 20.2 3 Noroeste 8 Noroeste 0 -- -- 83
2020-06-23 05:00:00 20.4 0 Calma 5 Oeste 0 -- -- 82
2020-06-23 04:00:00 20.7 4 Oeste 6 Oeste 0 -- -- 81
2020-06-23 03:00:00 21 2 Oeste 5 Oeste 0 -- -- 79
2020-06-23 02:00:00 21.6 0 Calma 14 Oeste 0 -- -- 76
2020-06-23 01:00:00 22 10 Oeste 14 Oeste 0 -- -- 73
2020-06-23 00:00:00 22.4 6 Sudoeste 10 Oeste 0 -- -- 72
2020-06-22 23:00:00 22.4 7 Oeste 9 Sudoeste 0 -- -- 71
2020-06-22 22:00:00 24.2 5 Sudoeste 16 Sudoeste 0 -- -- 64
2020-06-22 21:00:00 25.6 10 Sudoeste 26 Sur 0 -- -- 58
2020-06-22 20:00:00 26.5 12 Sur 28 Sur 0 -- -- 56
2020-06-22 19:00:00 26.5 17 Sur 30 Sur 0 -- -- 59
2020-06-22 18:00:00 26.8 18 Sur 26 Sur 0 -- -- 65
2020-06-22 17:00:00 26.9 13 Sur 25 Sur 0 -- -- 68
2020-06-22 16:00:00 27 16 Sur 27 Sur 0 -- -- 67
2020-06-22 15:00:00 26.8 15 Sur 26 Sur 0 -- -- 68
2020-06-22 14:00:00 26.5 16 Sur 26 Sur 0 -- -- 68
2020-06-22 13:00:00 26.1 14 Sur 28 Sudeste 0 -- -- 73
2020-06-22 12:00:00 25.8 12 Sur 23 Sudeste 0 -- -- 71
2020-06-22 11:00:00 25.5 10 Sur 18 Sur 0 -- -- 72
2020-06-22 10:00:00 25.2 8 Sudeste 13 Sudeste 0 -- -- 69
2020-06-22 09:00:00 23.7 3 Nordeste 6 Este 0 -- -- 82
2020-06-22 08:00:00 22.1 3 Sudeste 6 Sudoeste 0 -- -- 87
2020-06-22 07:00:00 20.7 4 Oeste 8 Oeste 0 -- -- 90
2020-06-22 06:00:00 19.7 4 Oeste 11 Noroeste 0 -- -- 85
2020-06-22 05:00:00 19.9 6 Noroeste 9 Noroeste 0 -- -- 82
2020-06-22 04:00:00 20.6 6 Noroeste 13 Sudeste 0 -- -- 68
2020-06-22 03:00:00 21 7 Noroeste 12 Oeste 0 -- -- 64
2020-06-22 02:00:00 21.6 5 Noroeste 14 Noroeste 0 -- -- 66
2020-06-22 01:00:00 22.6 6 Noroeste 16 Noroeste 0 -- -- 75
2020-06-22 00:00:00 23.2 6 Noroeste 16 Oeste 0 -- -- 72
2020-06-21 23:00:00 23 2 Noroeste 6 Norte 0 -- -- 84
2020-06-21 22:00:00 23.8 3 Noroeste 6 Sudeste 0 -- -- 82
2020-06-21 21:00:00 25 4 Sur 11 Sudoeste 0 -- -- 79
2020-06-21 20:00:00 26 8 Sur 14 Sudoeste 0 -- -- 73
2020-06-21 19:00:00 26.2 9 Sudeste 14 Sur 0 -- -- 70
2020-06-21 18:00:00 26.7 9 Sur 17 Sur 0 -- -- 66
2020-06-21 17:00:00 26.7 9 Sur 19 Sudeste 0 -- -- 65
2020-06-21 16:00:00 26.6 12 Sur 20 Sur 0 -- -- 65
2020-06-21 15:00:00 26.3 12 Sur 19 Sudeste 0 -- -- 64
2020-06-21 14:00:00 26.3 12 Sudeste 22 Sudeste 0 -- -- 68
2020-06-21 13:00:00 26 12 Sudeste 20 Sudeste 0 -- -- 71
2020-06-21 12:00:00 25.9 12 Sudeste 20 Sudeste 0 -- -- 73
2020-06-21 11:00:00 24.6 9 Sudeste 16 Sudeste 0 -- -- 78
2020-06-21 10:00:00 23.2 0 Calma 10 Norte 0 -- -- 81
2020-06-21 09:00:00 21.5 9 Norte 15 Norte 0 -- -- 88
2020-06-21 08:00:00 20.6 10 Noroeste 18 Norte 0 -- -- 91
2020-06-21 07:00:00 20.1 12 Norte 19 Noroeste 0 -- -- 94
2020-06-21 06:00:00 19.8 9 Norte 17 Noroeste 0 -- -- 93
2020-06-21 05:00:00 19.9 9 Noroeste 14 Noroeste 0 -- -- 93
2020-06-21 04:00:00 20.1 5 Noroeste 8 Noroeste 0 -- -- 93
2020-06-21 03:00:00 20.1 5 Noroeste 6 Noroeste 0 -- -- 93
2020-06-21 02:00:00 20.4 2 Noroeste 7 Noroeste 0 -- -- 92
2020-06-21 01:00:00 20.8 6 Noroeste 8 Noroeste 0 -- -- 91
2020-06-21 00:00:00 21.6 4 Noroeste 7 Noroeste 0 -- -- 90
2020-06-20 23:00:00 22.3 4 Noroeste 6 Sudoeste 0 -- -- 87
2020-06-20 22:00:00 22.9 5 Sudoeste 8 Sudoeste 0 -- -- 85
2020-06-20 21:00:00 23.4 5 Sur 9 Sur 0 -- -- 84
2020-06-20 20:00:00 23.7 5 Sudeste 10 Sur 0 -- -- 82
2020-06-20 19:00:00 23.9 6 Sur 12 Sudeste 0 -- -- 80
2020-06-20 18:00:00 24.8 10 Sudeste 18 Sur 0 -- -- 75
2020-06-20 17:00:00 25.8 11 Sudeste 22 Sur 0 -- -- 71
2020-06-20 16:00:00 26.1 12 Sudeste 24 Sudeste 0 -- -- 72
2020-06-20 15:00:00 25.5 12 Sudeste 23 Sudeste 0 -- -- 72
2020-06-20 14:00:00 25.4 14 Sudeste 25 Sudeste 0 -- -- 70
2020-06-20 13:00:00 25.6 13 Este 25 Este 0 -- -- 68
2020-06-20 12:00:00 25.1 16 Este 24 Este 0 -- -- 70
2020-06-20 11:00:00 24.2 8 Este 14 Sur 0 -- -- 73
2020-06-20 10:00:00 23.2 4 Este 10 Este 0 -- -- 77
2020-06-20 09:00:00 21.8 9 Noroeste 19 Noroeste 0 -- -- 83
2020-06-20 08:00:00 20 12 Norte 18 Norte 0 -- -- 90
2020-06-20 07:00:00 19.1 12 Noroeste 18 Noroeste 0 -- -- 93
2020-06-20 06:00:00 19.5 6 Noroeste 10 Norte 0 -- -- 92
2020-06-20 05:00:00 19.4 8 Norte 12 Noroeste 0 -- -- 94
2020-06-20 04:00:00 18.4 2 Noroeste 6 Noroeste 0 -- -- 93
2020-06-20 03:00:00 18.7 4 Noroeste 8 Noroeste 0 -- -- 92
2020-06-20 02:00:00 19.3 6 Noroeste 9 Noroeste 0 -- -- 90
2020-06-20 01:00:00 19.5 3 Noroeste 8 Noroeste 0 -- -- 92
2020-06-20 00:00:00 19.4 4 Noroeste 8 Noroeste 0 -- -- 92
2020-06-19 23:00:00 19.9 4 Noroeste 6 Noroeste 0 -- -- 90
2020-06-19 22:00:00 20.7 5 Noroeste 6 Noroeste 0 -- -- 87
2020-06-19 21:00:00 22 2 Sudeste 10 Sudeste 0 -- -- 83
2020-06-19 20:00:00 22.4 5 Sur 12 Sur 0 -- -- 80
2020-06-19 19:00:00 23 6 Sur 13 Sur 0 -- -- 77
2020-06-19 18:00:00 22.9 5 Sudeste 13 Sudeste 0 -- -- 76
2020-06-19 17:00:00 22.5 8 Sudeste 17 Este 0 -- -- 80
2020-06-19 16:00:00 23 9 Sudeste 19 Sudeste 0 -- -- 73
2020-06-19 15:00:00 22.5 12 Sudeste 19 Sudeste 0 -- -- 75
2020-06-19 14:00:00 22.7 12 Sudeste 19 Sudeste 0 -- -- 78
2020-06-19 13:00:00 21.8 10 Sudeste 22 Este 0 -- -- 83
2020-06-19 12:00:00 22.6 14 Este 22 Este 0 -- -- 79
2020-06-19 11:00:00 22.8 10 Este 14 Nordeste 0 -- -- 76
2020-06-19 10:00:00 22.3 5 Nordeste 9 Norte 0 -- -- 78
2020-06-19 09:00:00 20.6 5 Noroeste 12 Norte 0 -- -- 83
2020-06-19 08:00:00 19.6 11 Norte 16 Noroeste 0 -- -- 85
2020-06-19 07:00:00 18.5 9 Norte 17 Noroeste 0 -- -- 88
2020-06-19 06:00:00 18.8 7 Norte 15 Norte 0 -- -- 87
2020-06-19 05:00:00 18.6 11 Norte 16 Noroeste 0 -- -- 87
2020-06-19 04:00:00 18.7 10 Noroeste 16 Noroeste 0 -- -- 87
2020-06-19 03:00:00 18.3 10 Noroeste 16 Noroeste 0 -- -- 88
2020-06-19 02:00:00 18.7 4 Norte 14 Norte 0 -- -- 87
2020-06-19 01:00:00 18.8 4 Norte 13 Norte 0 -- -- 87
2020-06-19 00:00:00 19.2 6 Norte 10 Noroeste 0 -- -- 86
2020-06-18 23:00:00 19.5 6 Noroeste 8 Noroeste 0 -- -- 85
2020-06-18 22:00:00 20.8 3 Este 5 Sudeste 0 -- -- 80
2020-06-18 21:00:00 21.4 4 Sudeste 14 Sudeste 0 -- -- 75
2020-06-18 20:00:00 22.2 9 Este 14 Este 0 -- -- 73
2020-06-18 19:00:00 22.6 10 Sudeste 19 Este 0 -- -- 69
2020-06-18 18:00:00 23.2 10 Este 23 Este 0 -- -- 69
2020-06-18 17:00:00 23 14 Este 24 Sudeste 0 -- -- 68
2020-06-18 16:00:00 23.3 15 Este 31 Este 0 -- -- 67
2020-06-18 15:00:00 23.5 22 Este 33 Este 0 -- -- 63
2020-06-18 14:00:00 23.6 20 Este 32 Este 0 -- -- 63
2020-06-18 13:00:00 23.4 20 Este 31 Este 0 -- -- 70
2020-06-18 12:00:00 21.7 21 Este 29 Este 0 -- -- 74
2020-06-18 11:00:00 21.3 11 Este 20 Este 0 -- -- 74
2020-06-18 10:00:00 20.6 10 Norte 18 Norte 0 -- -- 75
2020-06-18 09:00:00 18.9 12 Norte 18 Norte 0 -- -- 81
2020-06-18 08:00:00 18.6 11 Norte 19 Norte 0 -- -- 80
2020-06-18 07:00:00 18.1 13 Noroeste 19 Noroeste 0 -- -- 80
2020-06-18 06:00:00 17.9 12 Noroeste 19 Noroeste 0 -- -- 82
2020-06-18 05:00:00 17.6 13 Norte 19 Norte 0 -- -- 84
2020-06-18 04:00:00 18.1 7 Noroeste 11 Noroeste 0 -- -- 81
2020-06-18 03:00:00 17.9 6 Noroeste 8 Noroeste 0 -- -- 81
2020-06-18 02:00:00 17.7 3 Oeste 12 Sudoeste 0 -- -- 83
2020-06-18 01:00:00 18.1 4 Oeste 10 Oeste 0 -- -- 81
2020-06-18 00:00:00 18.5 5 Noroeste 9 Noroeste 0 -- -- 80
2020-06-17 23:00:00 19.3 3 Norte 13 Noroeste 0 -- -- 73
2020-06-17 22:00:00 19.9 4 Noroeste 13 Noroeste 0 -- -- 74
2020-06-17 21:00:00 20.6 4 Noroeste 14 Norte 0 -- -- 76
2020-06-17 20:00:00 21.4 4 Sur 10 Sur 0 -- -- 64
2020-06-17 19:00:00 21.8 8 Sur 15 Sudeste 0 -- -- 63
2020-06-17 18:00:00 23 9 Sudeste 22 Sur 0 -- -- 60
2020-06-17 17:00:00 23.4 4 Este 16 Este 0 -- -- 61
2020-06-17 16:00:00 22.5 6 Este 25 Nordeste 0 -- -- 62
2020-06-17 15:00:00 23.2 13 Nordeste 21 Nordeste 0 -- -- 66
2020-06-17 14:00:00 23.6 13 Sudeste 25 Sudeste 0 -- -- 55
2020-06-17 13:00:00 23.4 11 Sudeste 22 Sudeste 0 -- -- 63
2020-06-17 12:00:00 22.7 11 Sur 19 Sudeste 0 -- -- 61
2020-06-17 11:00:00 22.1 9 Sudeste 15 Sur 0 -- -- 64
2020-06-17 10:00:00 20.5 3 Nordeste 14 Norte 0 -- -- 73
2020-06-17 09:00:00 18.9 8 Noroeste 18 Noroeste 0 -- -- 72
2020-06-17 08:00:00 17.7 5 Norte 10 Noroeste 0 -- -- 76
2020-06-17 07:00:00 16.7 3 Oeste 8 Noroeste 0 -- -- 78
2020-06-17 06:00:00 17.2 4 Sur 15 Noroeste 0 -- -- 80
2020-06-17 05:00:00 17.5 8 Noroeste 14 Oeste 0 -- -- 85
2020-06-17 04:00:00 17.8 3 Oeste 5 Oeste 0 -- -- 85
2020-06-17 03:00:00 18.3 3 Norte 13 Noroeste 0 -- -- 81
2020-06-17 02:00:00 18.4 5 Noroeste 16 Noroeste 0 -- -- 85
2020-06-17 01:00:00 18 10 Noroeste 17 Noroeste 0 -- -- 89
2020-06-17 00:00:00 18.2 4 Noroeste 11 Noroeste 0 -- -- 88
2020-06-16 23:00:00 18.6 6 Noroeste 9 Oeste 0 -- -- 87
2020-06-16 22:00:00 19.8 4 Sur 11 Sudoeste 0 -- -- 86
2020-06-16 21:00:00 20.6 6 Sudoeste 10 Sur 0 -- -- 80
2020-06-16 20:00:00 21.9 6 Sur 10 Sudeste 0 -- -- 73
2020-06-16 19:00:00 21.6 4 Nordeste 10 Norte 0 -- -- 70
2020-06-16 18:00:00 20.3 6 Noroeste 19 Este 0 -- -- 78
2020-06-16 17:00:00 19.6 12 Este 21 Este 0.2 -- -- 86
2020-06-16 16:00:00 18.1 8 Nordeste 17 Norte 3.6 -- -- 91
2020-06-16 15:00:00 18.9 12 Norte 33 Norte 1 -- -- 89
2020-06-16 14:00:00 23.7 21 Este 39 Este 0 -- -- 67
2020-06-16 13:00:00 24.7 24 Este 37 Este 0 -- -- 64
2020-06-16 12:00:00 23.5 19 Este 35 Este 0 -- -- 61
2020-06-16 11:00:00 23.8 18 Este 26 Este 0 -- -- 69
2020-06-16 10:00:00 22.6 8 Este 16 Este 0 -- -- 73
2020-06-16 09:00:00 21.8 10 Norte 16 Nordeste 0 -- -- 80
2020-06-16 08:00:00 20.7 9 Norte 18 Nordeste 0 -- -- 86
2020-06-16 07:00:00 20.3 11 Norte 17 Norte 0 -- -- 86
2020-06-16 06:00:00 19.5 12 Norte 17 Norte 0 -- -- 82
2020-06-16 05:00:00 19.9 10 Norte 18 Norte 0 -- -- 76
2020-06-16 04:00:00 19.9 3 Norte 15 Noroeste 0 -- -- 73
2020-06-16 03:00:00 20.1 6 Sudeste 24 Norte 0 -- -- 71
2020-06-16 02:00:00 20.1 17 Noroeste 24 Noroeste 0 -- -- 72
2020-06-16 01:00:00 19.6 4 Norte 10 Noroeste 0 -- -- 71
2020-06-16 00:00:00 20.2 3 Norte 12 Noroeste 0 -- -- 67
2020-06-15 23:00:00 20.6 6 Oeste 12 Noroeste 0 -- -- 65
2020-06-15 22:00:00 21.4 4 Noroeste 6 Sur 0 -- -- 81
2020-06-15 21:00:00 22.8 5 Sur 13 Sur 0 -- -- 76
2020-06-15 20:00:00 23.7 8 Sur 12 Sur 0 -- -- 73
2020-06-15 19:00:00 24 6 Sudeste 15 Sur 0 -- -- 71
2020-06-15 18:00:00 23.9 7 Sur 21 Sur 0 -- -- 71
2020-06-15 17:00:00 25.4 12 Sudeste 22 Sudeste 0 -- -- 69
2020-06-15 16:00:00 25.7 11 Sudeste 24 Este 0 -- -- 67
2020-06-15 15:00:00 25.5 13 Sudeste 27 Este 0 -- -- 68
2020-06-15 14:00:00 25.5 17 Este 28 Este 0 -- -- 56
2020-06-15 13:00:00 25.4 15 Este 26 Sudeste 0 -- -- 60
2020-06-15 12:00:00 24.8 16 Este 27 Este 0 -- -- 65
2020-06-15 11:00:00 24.3 16 Este 27 Este 0 -- -- 68
2020-06-15 10:00:00 23.8 9 Este 19 Este 0 -- -- 71
2020-06-15 09:00:00 22.4 4 Norte 12 Noroeste 0 -- -- 72
2020-06-15 08:00:00 20.9 0 Calma 7 Noroeste 0 -- -- 89
2020-06-15 07:00:00 18.6 5 Noroeste 8 Noroeste 0 -- -- 89
2020-06-15 06:00:00 18.1 6 Noroeste 10 Noroeste 0 -- -- 78
2020-06-15 05:00:00 18.3 5 Noroeste 22 Noroeste 0 -- -- 75
2020-06-15 04:00:00 19.6 17 Norte 26 Norte 0 -- -- 70
2020-06-15 03:00:00 19.1 6 Norte 15 Noroeste 0 -- -- 78
2020-06-15 02:00:00 18.9 7 Norte 12 Noroeste 0 -- -- 82
2020-06-15 01:00:00 19 5 Noroeste 9 Noroeste 0 -- -- 86
2020-06-15 00:00:00 19.5 4 Noroeste 8 Noroeste 0 -- -- 81
2020-06-14 23:00:00 20.3 5 Noroeste 9 Noroeste 0 -- -- 73
2020-06-14 22:00:00 22.3 2 Noroeste 9 Norte 0 -- -- 66
2020-06-14 21:00:00 22.8 5 Norte 8 Nordeste 0 -- -- 72
2020-06-14 20:00:00 23.3 6 Sur 14 Sudeste 0 -- -- 72
2020-06-14 19:00:00 24 7 Sudeste 15 Sudeste 0 -- -- 72
2020-06-14 18:00:00 24.1 10 Sudeste 20 Este 0 -- -- 72
2020-06-14 17:00:00 25 10 Sudeste 22 Sudeste 0 -- -- 67
2020-06-14 16:00:00 25.3 13 Sudeste 25 Sur 0 -- -- 65
2020-06-14 15:00:00 25.7 16 Este 26 Este 0 -- -- 58
2020-06-14 14:00:00 25 17 Este 31 Este 0 -- -- 58
2020-06-14 13:00:00 24.7 19 Este 32 Sudeste 0 -- -- 63
2020-06-14 12:00:00 24.3 19 Este 28 Este 0 -- -- 66
2020-06-14 11:00:00 24.6 14 Este 28 Este 0 -- -- 58
2020-06-14 10:00:00 23.6 7 Sudeste 14 Norte 0 -- -- 52
2020-06-14 09:00:00 22.1 2 Sudeste 13 Noroeste 0 -- -- 60
2020-06-14 08:00:00 19.4 11 Noroeste 19 Noroeste 0 -- -- 58
2020-06-14 07:00:00 18.7 13 Noroeste 23 Noroeste 0 -- -- 56
2020-06-14 06:00:00 17.5 14 Norte 24 Norte 0 -- -- 61
2020-06-14 05:00:00 17.7 14 Noroeste 21 Noroeste 0 -- -- 62
2020-06-14 04:00:00 18.1 15 Noroeste 20 Noroeste 0 -- -- 63
2020-06-14 03:00:00 18.6 14 Noroeste 21 Noroeste 0 -- -- 62
2020-06-14 02:00:00 18.9 14 Noroeste 20 Noroeste 0 -- -- 61
2020-06-14 01:00:00 18.7 18 Noroeste 24 Noroeste 0 -- -- 65
2020-06-14 00:00:00 19.2 15 Noroeste 21 Noroeste 0 -- -- 65
2020-06-13 23:00:00 19.9 9 Noroeste 12 Noroeste 0 -- -- 64
2020-06-13 22:00:00 20.8 4 Noroeste 10 Sur 0 -- -- 65
2020-06-13 21:00:00 23.1 7 Sur 24 Sur 0 -- -- 60
2020-06-13 20:00:00 24.2 15 Sur 26 Sur 0 -- -- 56
2020-06-13 19:00:00 25.1 12 Sur 27 Sur 0 -- -- 49
2020-06-13 18:00:00 25.8 15 Sur 33 Sur 0 -- -- 41
2020-06-13 17:00:00 25.8 18 Sur 29 Sur 0 -- -- 43
2020-06-13 16:00:00 25.6 20 Sur 31 Sur 0 -- -- 39
2020-06-13 15:00:00 25.3 19 Sur 26 Sur 0 -- -- 43
2020-06-13 14:00:00 24.9 15 Sur 24 Sur 0 -- -- 44
2020-06-13 13:00:00 25.3 16 Sur 28 Sur 0 -- -- 40
2020-06-13 12:00:00 24.6 17 Sur 28 Sur 0 -- -- 48
2020-06-13 11:00:00 24.8 8 Este 17 Norte 0 -- -- 38
2020-06-13 10:00:00 23.2 6 Norte 16 Norte 0 -- -- 38
2020-06-13 09:00:00 21.5 8 Norte 15 Noroeste 0 -- -- 46
2020-06-13 08:00:00 19 8 Noroeste 16 Norte 0 -- -- 55
2020-06-13 07:00:00 17.7 6 Nordeste 18 Noroeste 0 -- -- 55
2020-06-13 06:00:00 17.3 9 Norte 19 Norte 0 -- -- 54
2020-06-13 05:00:00 18.6 12 Norte 18 Norte 0 -- -- 47
2020-06-13 04:00:00 18 12 Norte 22 Noroeste 0 -- -- 53
2020-06-13 03:00:00 17 8 Noroeste 16 Noroeste 0 -- -- 57
2020-06-13 02:00:00 18.2 11 Noroeste 15 Noroeste 0 -- -- 60
2020-06-13 01:00:00 18.6 2 Nordeste 22 Noroeste 0 -- -- 81
2020-06-13 00:00:00 19.8 17 Norte 24 Norte 0 -- -- 77
2020-06-12 23:00:00 20.8 17 Norte 28 Noroeste 0 -- -- 74
2020-06-12 22:00:00 21.7 11 Noroeste 21 Noroeste 0 -- -- 71
2020-06-12 21:00:00 23.8 12 Sudoeste 32 Sudoeste 0 -- -- 55
2020-06-12 20:00:00 23.1 23 Sur 51 Sur 0 -- -- 68
2020-06-12 19:00:00 25.6 27 Sur 45 Sur 0 -- -- 58
2020-06-12 18:00:00 26.8 27 Sur 46 Sur 0 -- -- 42
2020-06-12 17:00:00 26.5 30 Sur 49 Sur 0 -- -- 42
2020-06-12 16:00:00 26.3 28 Sur 49 Sur 0 -- -- 41
2020-06-12 15:00:00 26.5 26 Sur 42 Sur 0 -- -- 36
2020-06-12 14:00:00 26.2 24 Sur 43 Sur 0 -- -- 36
2020-06-12 13:00:00 25.2 26 Sur 40 Sudoeste 0 -- -- 38
2020-06-12 12:00:00 24.8 21 Sur 33 Sur 0 -- -- 38
2020-06-12 11:00:00 24.7 15 Sudoeste 30 Sudoeste 0 -- -- 32
2020-06-12 10:00:00 23.7 16 Sudoeste 28 Sudoeste 0 -- -- 34
2020-06-12 09:00:00 22.6 7 Oeste 27 Norte 0 -- -- 42
2020-06-12 08:00:00 20.4 11 Noroeste 22 Sudoeste 0 -- -- 52
2020-06-12 07:00:00 18.9 13 Sudoeste 18 Sudoeste 0 -- -- 58
2020-06-12 06:00:00 18.3 6 Oeste 20 Noroeste 0 -- -- 69
2020-06-12 05:00:00 20.6 15 Norte 30 Oeste 0 -- -- 63
2020-06-12 04:00:00 21 15 Oeste 35 Oeste 0 -- -- 61
2020-06-12 03:00:00 18.1 10 Noroeste 13 Oeste 0 -- -- 88
2020-06-12 02:00:00 19 3 Norte 13 Noroeste 0 -- -- 86
2020-06-12 01:00:00 19.6 7 Oeste 15 Norte 0 -- -- 84
2020-06-12 00:00:00 20.3 10 Norte 19 Norte 0 -- -- 82
2020-06-11 23:00:00 20.8 11 Norte 20 Norte 0 -- -- 83
2020-06-11 22:00:00 21.8 10 Norte 16 Este 0 -- -- 78
2020-06-11 21:00:00 23.1 8 Este 16 Este 0 -- -- 72
2020-06-11 20:00:00 23.7 8 Este 17 Sudeste 0 -- -- 72
2020-06-11 19:00:00 23.9 11 Sudeste 28 Sudeste 0 -- -- 74
2020-06-11 18:00:00 25.6 15 Sur 28 Sur 0 -- -- 62
2020-06-11 17:00:00 25.7 17 Sur 35 Sur 0 -- -- 60
2020-06-11 16:00:00 25.5 15 Sudeste 29 Sur 0 -- -- 64
2020-06-11 15:00:00 24.9 17 Sudeste 27 Sudeste 0 -- -- 68
2020-06-11 14:00:00 24.3 16 Sudeste 28 Sur 0 -- -- 68
2020-06-11 13:00:00 24.4 19 Sur 30 Sur 0 -- -- 65
2020-06-11 12:00:00 23.5 21 Sur 32 Sur 0 -- -- 65
2020-06-11 11:00:00 23.3 16 Sur 23 Sur 0 -- -- 65
2020-06-11 10:00:00 22.9 10 Sur 16 Sudeste 0 -- -- 68
2020-06-11 09:00:00 20.8 3 Sudeste 4 Este 0 -- -- 73
2020-06-11 08:00:00 18.8 0 Calma 4 Noroeste 0 -- -- 77
2020-06-11 07:00:00 18.2 3 Noroeste 6 Oeste 0 -- -- 74
2020-06-11 06:00:00 18.3 5 Noroeste 9 Oeste 0 -- -- 76
2020-06-11 05:00:00 18.1 7 Noroeste 12 Noroeste 0 -- -- 77
2020-06-11 04:00:00 18.7 4 Noroeste 8 Norte 0 -- -- 75
2020-06-11 03:00:00 18.7 5 Noroeste 12 Oeste 0 -- -- 75
2020-06-11 02:00:00 18.7 7 Noroeste 13 Noroeste 0 -- -- 75
2020-06-11 01:00:00 19 5 Sur 10 Sudoeste 0 -- -- 76
2020-06-11 00:00:00 19.2 2 Noroeste 8 Sudoeste 0 -- -- 73